sensor_id;sensor_type;location;lat;lon;timestamp;P1;durP1;ratioP1;P2;durP2;ratioP2
35462;SDS011;21578;47.892;9.970;2023-11-21T05:01:29;4.17;;;3.70;;
35462;SDS011;21578;47.892;9.970;2023-11-21T05:06:17;1.57;;;1.07;;
35462;SDS011;21578;47.892;9.970;2023-11-21T05:11:05;1.00;;;0.70;;
35462;SDS011;21578;47.892;9.970;2023-11-21T05:15:55;0.73;;;0.33;;
35462;SDS011;21578;47.892;9.970;2023-11-21T05:20:44;1.90;;;1.20;;
35462;SDS011;21578;47.892;9.970;2023-11-21T05:25:33;1.87;;;0.67;;
35462;SDS011;21578;47.892;9.970;2023-11-21T05:30:20;2.23;;;0.40;;
35462;SDS011;21578;47.892;9.970;2023-11-21T05:35:11;1.50;;;0.30;;
35462;SDS011;21578;47.892;9.970;2023-11-21T05:40:08;0.80;;;0.37;;
35462;SDS011;21578;47.892;9.970;2023-11-21T05:44:55;2.27;;;0.50;;
35462;SDS011;21578;47.892;9.970;2023-11-21T05:49:44;2.13;;;0.20;;
35462;SDS011;21578;47.892;9.970;2023-11-21T05:54:35;0.50;;;0.20;;
35462;SDS011;21578;47.892;9.970;2023-11-21T05:59:24;3.00;;;0.80;;
35462;SDS011;21578;47.892;9.970;2023-11-21T06:04:13;1.87;;;0.40;;
35462;SDS011;21578;47.892;9.970;2023-11-21T06:09:01;0.50;;;0.40;;
35462;SDS011;21578;47.892;9.970;2023-11-21T06:14:10;0.60;;;0.33;;
35462;SDS011;21578;47.892;9.970;2023-11-21T06:19:06;0.53;;;0.30;;
35462;SDS011;21578;47.892;9.970;2023-11-21T06:23:55;1.27;;;0.40;;
35462;SDS011;21578;47.892;9.970;2023-11-21T06:28:47;2.40;;;0.60;;
35462;SDS011;21578;47.892;9.970;2023-11-21T06:33:38;1.27;;;0.40;;
35462;SDS011;21578;47.892;9.970;2023-11-21T06:38:28;1.00;;;0.40;;
35462;SDS011;21578;47.892;9.970;2023-11-21T06:43:27;1.10;;;0.60;;
35462;SDS011;21578;47.892;9.970;2023-11-21T06:48:14;1.43;;;0.60;;
35462;SDS011;21578;47.892;9.970;2023-11-21T06:53:01;0.80;;;0.40;;
35462;SDS011;21578;47.892;9.970;2023-11-21T06:57:53;1.17;;;0.57;;
35462;SDS011;21578;47.892;9.970;2023-11-21T07:02:40;1.57;;;0.70;;
35462;SDS011;21578;47.892;9.970;2023-11-21T07:07:27;0.83;;;0.40;;
35462;SDS011;21578;47.892;9.970;2023-11-21T07:12:14;2.00;;;0.60;;
35462;SDS011;21578;47.892;9.970;2023-11-21T07:17:03;6.03;;;0.80;;
35462;SDS011;21578;47.892;9.970;2023-11-21T07:21:50;3.33;;;0.87;;
35462;SDS011;21578;47.892;9.970;2023-11-21T07:26:37;1.93;;;0.80;;
35462;SDS011;21578;47.892;9.970;2023-11-21T07:31:24;2.93;;;1.07;;
35462;SDS011;21578;47.892;9.970;2023-11-21T07:36:12;1.23;;;0.70;;
35462;SDS011;21578;47.892;9.970;2023-11-21T07:41:00;5.87;;;0.83;;
35462;SDS011;21578;47.892;9.970;2023-11-21T07:45:48;0.90;;;0.60;;
35462;SDS011;21578;47.892;9.970;2023-11-21T07:50:35;1.97;;;0.80;;
35462;SDS011;21578;47.892;9.970;2023-11-21T07:55:24;2.20;;;0.50;;
35462;SDS011;21578;47.892;9.970;2023-11-21T08:00:13;1.40;;;0.63;;
35462;SDS011;21578;47.892;9.970;2023-11-21T08:05:00;1.60;;;0.70;;
35462;SDS011;21578;47.892;9.970;2023-11-21T08:09:47;0.87;;;0.60;;
35462;SDS011;21578;47.892;9.970;2023-11-21T08:14:36;2.47;;;0.70;;
35462;SDS011;21578;47.892;9.970;2023-11-21T08:19:25;2.83;;;1.00;;
35462;SDS011;21578;47.892;9.970;2023-11-21T08:24:12;1.73;;;0.80;;
35462;SDS011;21578;47.892;9.970;2023-11-21T08:28:59;2.40;;;0.87;;
35462;SDS011;21578;47.892;9.970;2023-11-21T08:33:48;0.93;;;0.70;;
35462;SDS011;21578;47.892;9.970;2023-11-21T08:38:35;1.83;;;0.63;;
35462;SDS011;21578;47.892;9.970;2023-11-21T08:43:23;0.73;;;0.70;;
35462;SDS011;21578;47.892;9.970;2023-11-21T08:48:12;1.00;;;0.60;;
35462;SDS011;21578;47.892;9.970;2023-11-21T08:53:01;0.63;;;0.50;;
35462;SDS011;21578;47.892;9.970;2023-11-21T08:57:48;0.77;;;0.50;;
35462;SDS011;21578;47.892;9.970;2023-11-21T09:02:35;1.07;;;0.50;;
35462;SDS011;21578;47.892;9.970;2023-11-21T09:07:22;0.53;;;0.53;;
35462;SDS011;21578;47.892;9.970;2023-11-21T09:12:10;0.90;;;0.70;;
35462;SDS011;21578;47.892;9.970;2023-11-21T09:16:57;1.17;;;0.70;;
35462;SDS011;21578;47.892;9.970;2023-11-21T09:21:44;1.00;;;0.83;;
35462;SDS011;21578;47.892;9.970;2023-11-21T09:26:31;2.63;;;1.47;;
35462;SDS011;21578;47.892;9.970;2023-11-21T09:31:19;1.47;;;0.70;;
35462;SDS011;21578;47.892;9.970;2023-11-21T09:36:10;0.83;;;0.60;;
35462;SDS011;21578;47.892;9.970;2023-11-21T09:40:58;1.10;;;0.60;;
35462;SDS011;21578;47.892;9.970;2023-11-21T09:45:48;1.43;;;0.63;;
35462;SDS011;21578;47.892;9.970;2023-11-21T09:50:42;0.60;;;0.60;;
35462;SDS011;21578;47.892;9.970;2023-11-21T09:55:30;0.47;;;0.47;;
35462;SDS011;21578;47.892;9.970;2023-11-21T10:00:22;1.13;;;0.70;;
35462;SDS011;21578;47.892;9.970;2023-11-21T10:05:09;1.37;;;0.70;;
35462;SDS011;21578;47.892;9.970;2023-11-21T10:09:58;1.20;;;0.80;;
35462;SDS011;21578;47.892;9.970;2023-11-21T10:14:47;1.23;;;0.60;;
35462;SDS011;21578;47.892;9.970;2023-11-21T10:19:35;0.70;;;0.50;;
35462;SDS011;21578;47.892;9.970;2023-11-21T10:24:22;1.17;;;0.50;;
35462;SDS011;21578;47.892;9.970;2023-11-21T10:29:11;0.77;;;0.50;;
35462;SDS011;21578;47.892;9.970;2023-11-21T10:34:14;0.40;;;0.40;;
35462;SDS011;21578;47.892;9.970;2023-11-21T10:39:01;2.30;;;0.40;;
35462;SDS011;21578;47.892;9.970;2023-11-21T10:43:48;0.80;;;0.50;;
35462;SDS011;21578;47.892;9.970;2023-11-21T10:48:36;1.50;;;0.40;;
35462;SDS011;21578;47.892;9.970;2023-11-21T10:53:23;0.87;;;0.40;;
35462;SDS011;21578;47.892;9.970;2023-11-21T10:58:10;1.43;;;0.60;;
35462;SDS011;21578;47.892;9.970;2023-11-21T11:02:59;1.70;;;0.60;;
35462;SDS011;21578;47.892;9.970;2023-11-21T11:07:48;1.37;;;0.73;;
35462;SDS011;21578;47.892;9.970;2023-11-21T11:12:39;0.83;;;0.50;;
35462;SDS011;21578;47.892;9.970;2023-11-21T11:17:27;1.47;;;0.70;;
35462;SDS011;21578;47.892;9.970;2023-11-21T11:22:18;1.90;;;0.50;;
35462;SDS011;21578;47.892;9.970;2023-11-21T11:27:18;2.60;;;0.90;;
35462;SDS011;21578;47.892;9.970;2023-11-21T11:32:16;0.43;;;0.40;;
35462;SDS011;21578;47.892;9.970;2023-11-21T11:37:20;4.00;;;0.60;;
35462;SDS011;21578;47.892;9.970;2023-11-21T11:42:10;1.80;;;0.60;;
35462;SDS011;21578;47.892;9.970;2023-11-21T11:47:00;1.03;;;0.80;;
35462;SDS011;21578;47.892;9.970;2023-11-21T11:51:47;0.97;;;0.60;;
35462;SDS011;21578;47.892;9.970;2023-11-21T11:56:34;1.17;;;0.43;;
35462;SDS011;21578;47.892;9.970;2023-11-21T12:01:24;1.47;;;0.60;;
35462;SDS011;21578;47.892;9.970;2023-11-21T12:06:13;1.07;;;0.60;;
35462;SDS011;21578;47.892;9.970;2023-11-21T12:11:00;0.60;;;0.40;;
35462;SDS011;21578;47.892;9.970;2023-11-21T12:15:47;0.50;;;0.40;;
35462;SDS011;21578;47.892;9.970;2023-11-21T12:20:35;0.80;;;0.60;;
35462;SDS011;21578;47.892;9.970;2023-11-21T12:25:25;0.57;;;0.40;;
35462;SDS011;21578;47.892;9.970;2023-11-21T12:30:14;0.60;;;0.50;;
35462;SDS011;21578;47.892;9.970;2023-11-21T12:35:02;0.47;;;0.30;;
35462;SDS011;21578;47.892;9.970;2023-11-21T12:39:51;0.70;;;0.47;;
35462;SDS011;21578;47.892;9.970;2023-11-21T12:55:22;0.53;;;0.30;;
35462;SDS011;21578;47.892;9.970;2023-11-21T13:00:11;1.23;;;0.40;;
35462;SDS011;21578;47.892;9.970;2023-11-21T13:05:11;2.80;;;1.67;;
35462;SDS011;21578;47.892;9.970;2023-11-21T13:10:06;0.67;;;0.40;;
35462;SDS011;21578;47.892;9.970;2023-11-21T13:14:55;0.73;;;0.40;;
35462;SDS011;21578;47.892;9.970;2023-11-21T13:19:44;0.23;;;0.10;;
35462;SDS011;21578;47.892;9.970;2023-11-21T13:24:32;0.20;;;0.10;;
35462;SDS011;21578;47.892;9.970;2023-11-21T13:29:19;0.10;;;0.10;;
35462;SDS011;21578;47.892;9.970;2023-11-21T13:34:07;0.53;;;0.10;;
35462;SDS011;21578;47.892;9.970;2023-11-21T13:38:54;0.33;;;0.27;;
35462;SDS011;21578;47.892;9.970;2023-11-21T13:43:43;0.80;;;0.20;;
35462;SDS011;21578;47.892;9.970;2023-11-21T13:48:37;1.10;;;0.90;;
35462;SDS011;21578;47.892;9.970;2023-11-21T13:53:28;0.70;;;0.57;;
35462;SDS011;21578;47.892;9.970;2023-11-21T13:58:15;0.93;;;0.80;;
35462;SDS011;21578;47.892;9.970;2023-11-21T14:03:07;0.30;;;0.30;;
35462;SDS011;21578;47.892;9.970;2023-11-21T14:08:02;0.20;;;0.10;;
35462;SDS011;21578;47.892;9.970;2023-11-21T14:12:51;0.30;;;0.30;;
35462;SDS011;21578;47.892;9.970;2023-11-21T14:17:38;1.13;;;0.80;;
35462;SDS011;21578;47.892;9.970;2023-11-21T14:22:26;0.43;;;0.40;;
35462;SDS011;21578;47.892;9.970;2023-11-21T14:27:13;0.30;;;0.30;;
35462;SDS011;21578;47.892;9.970;2023-11-21T14:32:03;0.37;;;0.20;;
35462;SDS011;21578;47.892;9.970;2023-11-21T14:42:32;0.40;;;0.40;;
35462;SDS011;21578;47.892;9.970;2023-11-21T14:47:22;1.10;;;0.50;;
35462;SDS011;21578;47.892;9.970;2023-11-21T14:52:12;0.37;;;0.30;;
35462;SDS011;21578;47.892;9.970;2023-11-21T14:57:14;2.03;;;1.13;;
35462;SDS011;21578;47.892;9.970;2023-11-21T15:02:03;3.17;;;1.20;;
35462;SDS011;21578;47.892;9.970;2023-11-21T15:07:02;13.17;;;8.03;;
35462;SDS011;21578;47.892;9.970;2023-11-21T15:11:49;6.67;;;4.00;;
35462;SDS011;21578;47.892;9.970;2023-11-21T15:16:40;2.00;;;1.40;;
35462;SDS011;21578;47.892;9.970;2023-11-21T15:21:46;2.50;;;2.20;;
35462;SDS011;21578;47.892;9.970;2023-11-21T15:31:36;3.87;;;3.13;;
35462;SDS011;21578;47.892;9.970;2023-11-21T15:36:26;9.90;;;5.43;;
35462;SDS011;21578;47.892;9.970;2023-11-21T15:41:13;3.83;;;3.40;;
35462;SDS011;21578;47.892;9.970;2023-11-21T15:46:04;12.10;;;4.77;;
35462;SDS011;21578;47.892;9.970;2023-11-21T15:50:52;4.87;;;2.90;;
35462;SDS011;21578;47.892;9.970;2023-11-21T15:55:42;6.40;;;2.40;;
35462;SDS011;21578;47.892;9.970;2023-11-21T16:00:29;16.30;;;11.43;;
35462;SDS011;21578;47.892;9.970;2023-11-21T16:05:18;2.27;;;2.00;;
35462;SDS011;21578;47.892;9.970;2023-11-21T16:10:06;3.30;;;2.73;;
35462;SDS011;21578;47.892;9.970;2023-11-21T16:14:55;6.73;;;4.60;;
35462;SDS011;21578;47.892;9.970;2023-11-21T16:19:43;13.30;;;10.07;;
35462;SDS011;21578;47.892;9.970;2023-11-21T16:24:31;1.07;;;0.80;;
35462;SDS011;21578;47.892;9.970;2023-11-21T16:29:18;1.43;;;0.87;;
35462;SDS011;21578;47.892;9.970;2023-11-21T16:34:10;0.87;;;0.70;;
35462;SDS011;21578;47.892;9.970;2023-11-21T16:38:58;4.50;;;3.00;;
35462;SDS011;21578;47.892;9.970;2023-11-21T16:48:50;0.57;;;0.40;;
35462;SDS011;21578;47.892;9.970;2023-11-21T16:59:25;0.53;;;0.53;;
35462;SDS011;21578;47.892;9.970;2023-11-21T23:11:48;11.90;;;9.47;;
35462;SDS011;21578;47.892;9.970;2023-11-21T23:16:36;13.30;;;8.93;;
35462;SDS011;21578;47.892;9.970;2023-11-21T23:21:27;12.97;;;9.03;;
35462;SDS011;21578;47.892;9.970;2023-11-21T23:26:17;12.20;;;8.67;;
35462;SDS011;21578;47.892;9.970;2023-11-21T23:31:09;11.70;;;9.10;;
35462;SDS011;21578;47.892;9.970;2023-11-21T23:35:58;10.83;;;8.10;;
35462;SDS011;21578;47.892;9.970;2023-11-21T23:40:45;11.97;;;8.63;;
35462;SDS011;21578;47.892;9.970;2023-11-21T23:45:33;13.20;;;8.83;;
35462;SDS011;21578;47.892;9.970;2023-11-21T23:50:25;12.57;;;8.93;;
35462;SDS011;21578;47.892;9.970;2023-11-21T23:55:12;12.47;;;9.23;;
35462;SDS011;21578;47.892;9.970;2023-11-21T23:59:59;12.50;;;8.93;;
